sensor_id;sensor_type;location;lat;lon;timestamp;temperature;humidity
66586;SHT30;53444;45.822;16.092;2023-02-28T00:00:37;1.21;87.47
66586;SHT30;53444;45.822;16.092;2023-02-28T00:03:04;1.20;87.75
66586;SHT30;53444;45.822;16.092;2023-02-28T00:05:31;1.23;87.51
66586;SHT30;53444;45.822;16.092;2023-02-28T00:07:57;1.20;87.45
66586;SHT30;53444;45.822;16.092;2023-02-28T00:10:26;1.20;87.82
66586;SHT30;53444;45.822;16.092;2023-02-28T00:12:58;1.19;87.68
66586;SHT30;53444;45.822;16.092;2023-02-28T00:15:25;1.07;87.84
66586;SHT30;53444;45.822;16.092;2023-02-28T00:17:52;1.10;87.82
66586;SHT30;53444;45.822;16.092;2023-02-28T00:20:20;1.11;88.09
66586;SHT30;53444;45.822;16.092;2023-02-28T00:22:49;1.16;87.89
66586;SHT30;53444;45.822;16.092;2023-02-28T00:25:17;1.16;87.67
66586;SHT30;53444;45.822;16.092;2023-02-28T00:27:44;1.20;87.57
66586;SHT30;53444;45.822;16.092;2023-02-28T00:30:14;1.24;87.64
66586;SHT30;53444;45.822;16.092;2023-02-28T00:32:42;1.20;87.93
66586;SHT30;53444;45.822;16.092;2023-02-28T00:35:10;1.14;88.06
66586;SHT30;53444;45.822;16.092;2023-02-28T00:37:37;1.10;88.32
66586;SHT30;53444;45.822;16.092;2023-02-28T00:40:05;1.17;88.17
66586;SHT30;53444;45.822;16.092;2023-02-28T00:42:33;1.23;87.93
66586;SHT30;53444;45.822;16.092;2023-02-28T00:45:00;1.21;87.61
66586;SHT30;53444;45.822;16.092;2023-02-28T00:47:30;1.13;88.20
66586;SHT30;53444;45.822;16.092;2023-02-28T00:49:57;1.07;88.31
66586;SHT30;53444;45.822;16.092;2023-02-28T00:52:24;1.11;88.18
66586;SHT30;53444;45.822;16.092;2023-02-28T00:54:50;1.16;88.00
66586;SHT30;53444;45.822;16.092;2023-02-28T00:57:17;1.19;87.92
66586;SHT30;53444;45.822;16.092;2023-02-28T00:59:44;1.19;87.90
66586;SHT30;53444;45.822;16.092;2023-02-28T01:02:10;1.16;88.15
66586;SHT30;53444;45.822;16.092;2023-02-28T01:04:38;1.19;87.87
66586;SHT30;53444;45.822;16.092;2023-02-28T01:07:05;1.17;87.99
66586;SHT30;53444;45.822;16.092;2023-02-28T01:09:32;1.20;87.72
66586;SHT30;53444;45.822;16.092;2023-02-28T01:11:58;1.20;87.63
66586;SHT30;53444;45.822;16.092;2023-02-28T01:14:25;1.16;87.92
66586;SHT30;53444;45.822;16.092;2023-02-28T01:16:52;1.16;87.93
66586;SHT30;53444;45.822;16.092;2023-02-28T01:19:18;1.20;87.81
66586;SHT30;53444;45.822;16.092;2023-02-28T01:21:46;1.26;87.51
66586;SHT30;53444;45.822;16.092;2023-02-28T01:24:13;1.27;87.32
66586;SHT30;53444;45.822;16.092;2023-02-28T01:26:40;1.28;87.23
66586;SHT30;53444;45.822;16.092;2023-02-28T01:29:07;1.24;87.40
66586;SHT30;53444;45.822;16.092;2023-02-28T01:31:33;1.24;87.46
66586;SHT30;53444;45.822;16.092;2023-02-28T01:34:00;1.26;87.52
66586;SHT30;53444;45.822;16.092;2023-02-28T01:36:27;1.28;87.59
66586;SHT30;53444;45.822;16.092;2023-02-28T01:38:55;1.34;86.95
66586;SHT30;53444;45.822;16.092;2023-02-28T01:41:23;1.34;86.92
66586;SHT30;53444;45.822;16.092;2023-02-28T01:43:57;1.32;87.29
66586;SHT30;53444;45.822;16.092;2023-02-28T01:46:24;1.35;87.19
66586;SHT30;53444;45.822;16.092;2023-02-28T01:48:54;1.38;87.04
66586;SHT30;53444;45.822;16.092;2023-02-28T01:51:26;1.37;86.76
66586;SHT30;53444;45.822;16.092;2023-02-28T01:53:59;1.35;86.85
66586;SHT30;53444;45.822;16.092;2023-02-28T01:56:30;1.40;86.53
66586;SHT30;53444;45.822;16.092;2023-02-28T01:58:58;1.41;86.71
66586;SHT30;53444;45.822;16.092;2023-02-28T02:01:26;1.37;86.44
66586;SHT30;53444;45.822;16.092;2023-02-28T02:03:55;1.32;86.74
66586;SHT30;53444;45.822;16.092;2023-02-28T02:06:23;1.40;87.01
66586;SHT30;53444;45.822;16.092;2023-02-28T02:08:51;1.35;86.73
66586;SHT30;53444;45.822;16.092;2023-02-28T02:11:21;1.32;86.76
66586;SHT30;53444;45.822;16.092;2023-02-28T02:14:09;1.35;86.84
66586;SHT30;53444;45.822;16.092;2023-02-28T02:16:45;1.35;86.80
66586;SHT30;53444;45.822;16.092;2023-02-28T02:19:30;1.35;87.01
66586;SHT30;53444;45.822;16.092;2023-02-28T02:22:18;1.30;87.36
66586;SHT30;53444;45.822;16.092;2023-02-28T02:25:19;1.31;87.02
66586;SHT30;53444;45.822;16.092;2023-02-28T02:31:10;1.34;87.44
66586;SHT30;53444;45.822;16.092;2023-02-28T02:36:49;1.31;87.00
66586;SHT30;53444;45.822;16.092;2023-02-28T02:39:21;1.26;87.47
66586;SHT30;53444;45.822;16.092;2023-02-28T02:41:52;1.32;87.55
66586;SHT30;53444;45.822;16.092;2023-02-28T02:44:21;1.34;87.73
66586;SHT30;53444;45.822;16.092;2023-02-28T02:46:52;1.31;87.98
66586;SHT30;53444;45.822;16.092;2023-02-28T02:49:26;1.28;88.10
66586;SHT30;53444;45.822;16.092;2023-02-28T02:51:56;1.34;87.81
66586;SHT30;53444;45.822;16.092;2023-02-28T02:54:27;1.31;87.92
66586;SHT30;53444;45.822;16.092;2023-02-28T02:56:59;1.32;87.87
66586;SHT30;53444;45.822;16.092;2023-02-28T02:59:28;1.31;87.60
66586;SHT30;53444;45.822;16.092;2023-02-28T03:02:00;1.28;88.07
66586;SHT30;53444;45.822;16.092;2023-02-28T03:04:32;1.35;87.96
66586;SHT30;53444;45.822;16.092;2023-02-28T03:07:00;1.32;87.98
66586;SHT30;53444;45.822;16.092;2023-02-28T03:09:27;1.30;88.34
66586;SHT30;53444;45.822;16.092;2023-02-28T03:11:55;1.28;88.34
66586;SHT30;53444;45.822;16.092;2023-02-28T03:14:29;1.32;88.22
66586;SHT30;53444;45.822;16.092;2023-02-28T03:17:17;1.27;88.35
66586;SHT30;53444;45.822;16.092;2023-02-28T03:19:56;1.27;88.62
66586;SHT30;53444;45.822;16.092;2023-02-28T03:22:54;1.30;88.81
66586;SHT30;53444;45.822;16.092;2023-02-28T03:25:30;1.30;88.67
66586;SHT30;53444;45.822;16.092;2023-02-28T03:28:05;1.28;88.69
66586;SHT30;53444;45.822;16.092;2023-02-28T03:30:38;1.28;88.69
66586;SHT30;53444;45.822;16.092;2023-02-28T03:33:10;1.31;88.71
66586;SHT30;53444;45.822;16.092;2023-02-28T03:35:42;1.26;89.08
66586;SHT30;53444;45.822;16.092;2023-02-28T03:38:13;1.27;89.07
66586;SHT30;53444;45.822;16.092;2023-02-28T03:40:45;1.28;89.17
66586;SHT30;53444;45.822;16.092;2023-02-28T03:43:15;1.28;89.16
66586;SHT30;53444;45.822;16.092;2023-02-28T03:45:45;1.24;89.49
66586;SHT30;53444;45.822;16.092;2023-02-28T03:48:16;1.21;89.39
66586;SHT30;53444;45.822;16.092;2023-02-28T03:50:48;1.17;89.57
66586;SHT30;53444;45.822;16.092;2023-02-28T03:53:19;1.20;89.53
66586;SHT30;53444;45.822;16.092;2023-02-28T03:55:50;1.21;89.26
66586;SHT30;53444;45.822;16.092;2023-02-28T03:58:22;1.28;89.14
66586;SHT30;53444;45.822;16.092;2023-02-28T04:00:55;1.26;89.19
66586;SHT30;53444;45.822;16.092;2023-02-28T04:03:23;1.26;89.38
66586;SHT30;53444;45.822;16.092;2023-02-28T04:05:53;1.23;89.48
66586;SHT30;53444;45.822;16.092;2023-02-28T04:08:21;1.27;89.52
66586;SHT30;53444;45.822;16.092;2023-02-28T04:10:51;1.23;89.38
66586;SHT30;53444;45.822;16.092;2023-02-28T04:13:19;1.30;89.22
66586;SHT30;53444;45.822;16.092;2023-02-28T04:15:46;1.32;89.14
66586;SHT30;53444;45.822;16.092;2023-02-28T04:18:13;1.30;89.28
66586;SHT30;53444;45.822;16.092;2023-02-28T04:20:39;1.27;89.30
66586;SHT30;53444;45.822;16.092;2023-02-28T04:23:07;1.30;88.98
66586;SHT30;53444;45.822;16.092;2023-02-28T04:25:36;1.30;89.37
66586;SHT30;53444;45.822;16.092;2023-02-28T04:28:05;1.30;89.39
66586;SHT30;53444;45.822;16.092;2023-02-28T04:30:32;1.30;89.70
66586;SHT30;53444;45.822;16.092;2023-02-28T04:33:00;1.27;89.33
66586;SHT30;53444;45.822;16.092;2023-02-28T04:35:27;1.26;89.27
66586;SHT30;53444;45.822;16.092;2023-02-28T04:37:53;1.28;89.55
66586;SHT30;53444;45.822;16.092;2023-02-28T04:40:21;1.26;89.51
66586;SHT30;53444;45.822;16.092;2023-02-28T04:42:48;1.27;89.98
66586;SHT30;53444;45.822;16.092;2023-02-28T04:45:15;1.34;89.61
66586;SHT30;53444;45.822;16.092;2023-02-28T04:47:42;1.31;89.70
66586;SHT30;53444;45.822;16.092;2023-02-28T04:50:09;1.27;89.39
66586;SHT30;53444;45.822;16.092;2023-02-28T04:52:36;1.34;89.30
66586;SHT30;53444;45.822;16.092;2023-02-28T04:55:04;1.37;89.28
66586;SHT30;53444;45.822;16.092;2023-02-28T04:57:32;1.44;88.84
66586;SHT30;53444;45.822;16.092;2023-02-28T04:59:58;1.35;88.89
66586;SHT30;53444;45.822;16.092;2023-02-28T05:02:25;1.35;89.17
66586;SHT30;53444;45.822;16.092;2023-02-28T05:04:52;1.32;89.09
66586;SHT30;53444;45.822;16.092;2023-02-28T05:07:18;1.30;89.73
66586;SHT30;53444;45.822;16.092;2023-02-28T05:09:45;1.35;89.41
66586;SHT30;53444;45.822;16.092;2023-02-28T05:12:12;1.38;89.01
66586;SHT30;53444;45.822;16.092;2023-02-28T05:14:40;1.35;89.15
66586;SHT30;53444;45.822;16.092;2023-02-28T05:17:07;1.35;89.11
66586;SHT30;53444;45.822;16.092;2023-02-28T05:19:34;1.31;89.31
66586;SHT30;53444;45.822;16.092;2023-02-28T05:22:01;1.37;89.22
66586;SHT30;53444;45.822;16.092;2023-02-28T05:24:28;1.34;89.30
66586;SHT30;53444;45.822;16.092;2023-02-28T05:26:55;1.31;89.47
66586;SHT30;53444;45.822;16.092;2023-02-28T05:29:22;1.31;89.35
66586;SHT30;53444;45.822;16.092;2023-02-28T05:31:51;1.30;89.44
66586;SHT30;53444;45.822;16.092;2023-02-28T05:34:18;1.31;89.48
66586;SHT30;53444;45.822;16.092;2023-02-28T05:36:45;1.35;89.30
66586;SHT30;53444;45.822;16.092;2023-02-28T05:39:12;1.34;89.44
66586;SHT30;53444;45.822;16.092;2023-02-28T05:41:41;1.31;89.66
66586;SHT30;53444;45.822;16.092;2023-02-28T05:44:08;1.35;89.42
66586;SHT30;53444;45.822;16.092;2023-02-28T05:46:38;1.28;89.55
66586;SHT30;53444;45.822;16.092;2023-02-28T05:49:07;1.32;89.33
66586;SHT30;53444;45.822;16.092;2023-02-28T05:51:34;1.31;89.34
66586;SHT30;53444;45.822;16.092;2023-02-28T05:54:06;1.35;89.25
66586;SHT30;53444;45.822;16.092;2023-02-28T05:56:33;1.32;89.37
66586;SHT30;53444;45.822;16.092;2023-02-28T05:59:05;1.37;89.28
66586;SHT30;53444;45.822;16.092;2023-02-28T06:01:33;1.38;89.13
66586;SHT30;53444;45.822;16.092;2023-02-28T06:04:04;1.34;89.40
66586;SHT30;53444;45.822;16.092;2023-02-28T06:06:37;1.34;89.41
66586;SHT30;53444;45.822;16.092;2023-02-28T06:09:04;1.32;89.21
66586;SHT30;53444;45.822;16.092;2023-02-28T06:11:35;1.28;89.32
66586;SHT30;53444;45.822;16.092;2023-02-28T06:14:04;1.24;89.80
66586;SHT30;53444;45.822;16.092;2023-02-28T06:16:36;1.34;89.76
66586;SHT30;53444;45.822;16.092;2023-02-28T06:19:17;1.41;89.23
66586;SHT30;53444;45.822;16.092;2023-02-28T06:21:48;1.42;89.21
66586;SHT30;53444;45.822;16.092;2023-02-28T06:24:16;1.44;89.31
66586;SHT30;53444;45.822;16.092;2023-02-28T06:26:43;1.45;89.44
66586;SHT30;53444;45.822;16.092;2023-02-28T06:29:10;1.42;89.27
66586;SHT30;53444;45.822;16.092;2023-02-28T06:31:41;1.40;89.20
66586;SHT30;53444;45.822;16.092;2023-02-28T06:34:09;1.47;89.09
66586;SHT30;53444;45.822;16.092;2023-02-28T06:36:37;1.54;89.11
66586;SHT30;53444;45.822;16.092;2023-02-28T06:39:05;1.54;89.07
66586;SHT30;53444;45.822;16.092;2023-02-28T06:41:32;1.59;89.19
66586;SHT30;53444;45.822;16.092;2023-02-28T06:44:03;1.54;89.10
66586;SHT30;53444;45.822;16.092;2023-02-28T06:46:31;1.56;89.04
66586;SHT30;53444;45.822;16.092;2023-02-28T06:48:58;1.65;88.90
66586;SHT30;53444;45.822;16.092;2023-02-28T06:51:24;1.65;88.56
66586;SHT30;53444;45.822;16.092;2023-02-28T06:53:52;1.61;88.76
66586;SHT30;53444;45.822;16.092;2023-02-28T06:56:20;1.56;89.24
66586;SHT30;53444;45.822;16.092;2023-02-28T06:58:47;1.58;89.12
66586;SHT30;53444;45.822;16.092;2023-02-28T07:01:14;1.62;89.12
66586;SHT30;53444;45.822;16.092;2023-02-28T07:03:41;1.59;88.92
66586;SHT30;53444;45.822;16.092;2023-02-28T07:06:08;1.66;88.84
66586;SHT30;53444;45.822;16.092;2023-02-28T07:08:35;1.68;88.77
66586;SHT30;53444;45.822;16.092;2023-02-28T07:11:07;1.68;88.59
66586;SHT30;53444;45.822;16.092;2023-02-28T07:13:35;1.73;88.25
66586;SHT30;53444;45.822;16.092;2023-02-28T07:16:04;1.83;88.03
66586;SHT30;53444;45.822;16.092;2023-02-28T07:18:31;1.91;87.85
66586;SHT30;53444;45.822;16.092;2023-02-28T07:21:01;1.86;88.24
66586;SHT30;53444;45.822;16.092;2023-02-28T07:23:28;1.96;87.92
66586;SHT30;53444;45.822;16.092;2023-02-28T07:25:54;1.82;88.03
66586;SHT30;53444;45.822;16.092;2023-02-28T07:28:21;1.83;88.20
66586;SHT30;53444;45.822;16.092;2023-02-28T07:30:50;1.91;88.04
66586;SHT30;53444;45.822;16.092;2023-02-28T07:33:17;1.95;87.80
66586;SHT30;53444;45.822;16.092;2023-02-28T07:35:44;1.96;88.10
66586;SHT30;53444;45.822;16.092;2023-02-28T07:38:11;2.05;88.05
66586;SHT30;53444;45.822;16.092;2023-02-28T07:40:39;2.16;87.70
66586;SHT30;53444;45.822;16.092;2023-02-28T07:43:06;2.07;87.54
66586;SHT30;53444;45.822;16.092;2023-02-28T07:45:33;2.10;87.51
66586;SHT30;53444;45.822;16.092;2023-02-28T07:48:02;2.24;87.05
66586;SHT30;53444;45.822;16.092;2023-02-28T07:50:28;2.20;86.93
66586;SHT30;53444;45.822;16.092;2023-02-28T07:52:56;2.26;87.07
66586;SHT30;53444;45.822;16.092;2023-02-28T07:55:23;2.26;87.28
66586;SHT30;53444;45.822;16.092;2023-02-28T07:57:50;2.23;87.23
66586;SHT30;53444;45.822;16.092;2023-02-28T08:00:17;2.27;86.72
66586;SHT30;53444;45.822;16.092;2023-02-28T08:02:44;2.22;86.85
66586;SHT30;53444;45.822;16.092;2023-02-28T08:05:12;2.27;86.99
66586;SHT30;53444;45.822;16.092;2023-02-28T08:07:39;2.30;87.27
66586;SHT30;53444;45.822;16.092;2023-02-28T08:10:07;2.33;87.02
66586;SHT30;53444;45.822;16.092;2023-02-28T08:12:35;2.41;86.28
66586;SHT30;53444;45.822;16.092;2023-02-28T08:15:02;2.44;86.00
66586;SHT30;53444;45.822;16.092;2023-02-28T08:17:29;2.48;85.61
66586;SHT30;53444;45.822;16.092;2023-02-28T08:19:56;2.55;85.60
66586;SHT30;53444;45.822;16.092;2023-02-28T08:22:24;2.62;85.90
66586;SHT30;53444;45.822;16.092;2023-02-28T08:24:50;2.78;85.62
66586;SHT30;53444;45.822;16.092;2023-02-28T08:27:17;2.71;85.52
66586;SHT30;53444;45.822;16.092;2023-02-28T08:29:44;2.83;85.53
66586;SHT30;53444;45.822;16.092;2023-02-28T08:32:10;2.94;85.20
66586;SHT30;53444;45.822;16.092;2023-02-28T08:34:38;3.04;84.64
66586;SHT30;53444;45.822;16.092;2023-02-28T08:37:05;3.13;83.43
66586;SHT30;53444;45.822;16.092;2023-02-28T08:39:35;3.09;83.84
66586;SHT30;53444;45.822;16.092;2023-02-28T08:42:03;3.09;84.46
66586;SHT30;53444;45.822;16.092;2023-02-28T08:44:30;3.25;83.87
66586;SHT30;53444;45.822;16.092;2023-02-28T08:46:57;3.42;83.24
66586;SHT30;53444;45.822;16.092;2023-02-28T08:49:23;3.47;82.73
66586;SHT30;53444;45.822;16.092;2023-02-28T08:51:50;3.57;82.62
66586;SHT30;53444;45.822;16.092;2023-02-28T08:54:17;3.62;82.63
66586;SHT30;53444;45.822;16.092;2023-02-28T08:56:46;3.53;82.00
66586;SHT30;53444;45.822;16.092;2023-02-28T08:59:13;3.59;81.53
66586;SHT30;53444;45.822;16.092;2023-02-28T09:01:40;3.70;81.32
66586;SHT30;53444;45.822;16.092;2023-02-28T09:04:09;3.62;80.52
66586;SHT30;53444;45.822;16.092;2023-02-28T09:06:37;3.74;80.39
66586;SHT30;53444;45.822;16.092;2023-02-28T09:09:04;3.71;80.05
66586;SHT30;53444;45.822;16.092;2023-02-28T09:11:33;3.60;79.54
66586;SHT30;53444;45.822;16.092;2023-02-28T09:14:02;3.53;79.94
66586;SHT30;53444;45.822;16.092;2023-02-28T09:16:29;3.59;79.90
66586;SHT30;53444;45.822;16.092;2023-02-28T09:18:57;3.77;79.58
66586;SHT30;53444;45.822;16.092;2023-02-28T09:21:23;3.95;79.17
66586;SHT30;53444;45.822;16.092;2023-02-28T09:23:50;4.10;78.61
66586;SHT30;53444;45.822;16.092;2023-02-28T09:26:19;4.00;78.64
66586;SHT30;53444;45.822;16.092;2023-02-28T09:28:47;4.14;78.04
66586;SHT30;53444;45.822;16.092;2023-02-28T09:31:18;4.25;77.94
66586;SHT30;53444;45.822;16.092;2023-02-28T09:33:47;4.15;77.36
66586;SHT30;53444;45.822;16.092;2023-02-28T09:36:16;4.10;77.16
66586;SHT30;53444;45.822;16.092;2023-02-28T09:38:43;4.17;77.38
66586;SHT30;53444;45.822;16.092;2023-02-28T09:41:13;4.35;77.24
66586;SHT30;53444;45.822;16.092;2023-02-28T09:43:45;4.58;77.20
66586;SHT30;53444;45.822;16.092;2023-02-28T09:46:28;4.55;76.85
66586;SHT30;53444;45.822;16.092;2023-02-28T09:48:56;4.51;77.04
66586;SHT30;53444;45.822;16.092;2023-02-28T09:51:43;4.12;76.33
66586;SHT30;53444;45.822;16.092;2023-02-28T09:54:15;4.32;76.37
66586;SHT30;53444;45.822;16.092;2023-02-28T09:56:45;4.35;75.32
66586;SHT30;53444;45.822;16.092;2023-02-28T09:59:21;4.19;76.04
66586;SHT30;53444;45.822;16.092;2023-02-28T10:01:57;4.19;74.42
66586;SHT30;53444;45.822;16.092;2023-02-28T10:04:36;4.18;74.75
66586;SHT30;53444;45.822;16.092;2023-02-28T10:07:17;4.34;74.44
66586;SHT30;53444;45.822;16.092;2023-02-28T10:09:47;4.52;74.29
66586;SHT30;53444;45.822;16.092;2023-02-28T10:12:16;4.37;72.94
66586;SHT30;53444;45.822;16.092;2023-02-28T10:14:45;4.28;74.31
66586;SHT30;53444;45.822;16.092;2023-02-28T10:17:17;4.56;73.92
66586;SHT30;53444;45.822;16.092;2023-02-28T10:19:53;4.70;73.47
66586;SHT30;53444;45.822;16.092;2023-02-28T10:22:24;4.55;73.36
66586;SHT30;53444;45.822;16.092;2023-02-28T10:24:54;4.56;74.62
66586;SHT30;53444;45.822;16.092;2023-02-28T10:27:23;4.35;75.80
66586;SHT30;53444;45.822;16.092;2023-02-28T10:29:51;4.31;75.86
66586;SHT30;53444;45.822;16.092;2023-02-28T10:32:21;4.46;75.36
66586;SHT30;53444;45.822;16.092;2023-02-28T10:34:51;4.49;75.03
66586;SHT30;53444;45.822;16.092;2023-02-28T10:37:19;4.39;74.64
66586;SHT30;53444;45.822;16.092;2023-02-28T10:39:46;4.55;75.09
66586;SHT30;53444;45.822;16.092;2023-02-28T10:42:24;4.63;74.32
66586;SHT30;53444;45.822;16.092;2023-02-28T10:45:11;4.79;73.44
66586;SHT30;53444;45.822;16.092;2023-02-28T10:47:49;5.13;72.77
66586;SHT30;53444;45.822;16.092;2023-02-28T10:50:36;5.00;72.00
66586;SHT30;53444;45.822;16.092;2023-02-28T10:53:25;5.11;72.33
66586;SHT30;53444;45.822;16.092;2023-02-28T10:55:59;5.09;72.27
66586;SHT30;53444;45.822;16.092;2023-02-28T10:58:28;5.28;72.06
66586;SHT30;53444;45.822;16.092;2023-02-28T11:00:55;5.13;71.80
66586;SHT30;53444;45.822;16.092;2023-02-28T11:03:30;5.19;71.78
66586;SHT30;53444;45.822;16.092;2023-02-28T11:05:58;5.16;70.97
66586;SHT30;53444;45.822;16.092;2023-02-28T11:08:24;5.11;71.67
66586;SHT30;53444;45.822;16.092;2023-02-28T11:10:55;5.04;71.05
66586;SHT30;53444;45.822;16.092;2023-02-28T11:13:26;5.04;71.09
66586;SHT30;53444;45.822;16.092;2023-02-28T11:15:55;5.31;71.11
66586;SHT30;53444;45.822;16.092;2023-02-28T11:18:25;5.16;72.13
66586;SHT30;53444;45.822;16.092;2023-02-28T11:20:58;5.41;70.78
66586;SHT30;53444;45.822;16.092;2023-02-28T11:23:27;5.20;70.87
66586;SHT30;53444;45.822;16.092;2023-02-28T11:25:59;5.61;70.33
66586;SHT30;53444;45.822;16.092;2023-02-28T11:28:28;5.85;70.24
66586;SHT30;53444;45.822;16.092;2023-02-28T11:31:01;5.98;68.55
66586;SHT30;53444;45.822;16.092;2023-02-28T11:33:30;6.03;67.54
66586;SHT30;53444;45.822;16.092;2023-02-28T11:36:02;6.10;67.78
66586;SHT30;53444;45.822;16.092;2023-02-28T11:38:31;5.88;66.69
66586;SHT30;53444;45.822;16.092;2023-02-28T11:41:11;5.56;68.30
66586;SHT30;53444;45.822;16.092;2023-02-28T11:43:58;5.66;69.71
66586;SHT30;53444;45.822;16.092;2023-02-28T11:46:32;5.72;69.69
66586;SHT30;53444;45.822;16.092;2023-02-28T11:49:06;5.76;69.63
66586;SHT30;53444;45.822;16.092;2023-02-28T11:51:47;5.92;69.64
66586;SHT30;53444;45.822;16.092;2023-02-28T11:54:32;5.89;68.69
66586;SHT30;53444;45.822;16.092;2023-02-28T11:57:10;5.85;68.55
66586;SHT30;53444;45.822;16.092;2023-02-28T11:59:50;5.58;68.64
66586;SHT30;53444;45.822;16.092;2023-02-28T12:02:29;5.61;68.51
66586;SHT30;53444;45.822;16.092;2023-02-28T12:05:14;5.68;68.60
66586;SHT30;53444;45.822;16.092;2023-02-28T12:07:55;5.75;68.57
66586;SHT30;53444;45.822;16.092;2023-02-28T12:10:28;5.79;67.53
66586;SHT30;53444;45.822;16.092;2023-02-28T12:13:07;5.68;67.41
66586;SHT30;53444;45.822;16.092;2023-02-28T12:15:56;5.71;68.09
66586;SHT30;53444;45.822;16.092;2023-02-28T12:18:34;5.93;67.79
66586;SHT30;53444;45.822;16.092;2023-02-28T12:21:12;5.91;67.00
66586;SHT30;53444;45.822;16.092;2023-02-28T12:23:51;5.79;67.88
66586;SHT30;53444;45.822;16.092;2023-02-28T12:26:31;5.78;66.71
66586;SHT30;53444;45.822;16.092;2023-02-28T12:29:05;6.06;67.68
66586;SHT30;53444;45.822;16.092;2023-02-28T12:31:40;6.23;66.42
66586;SHT30;53444;45.822;16.092;2023-02-28T12:34:12;6.33;66.43
66586;SHT30;53444;45.822;16.092;2023-02-28T12:36:41;6.44;66.00
66586;SHT30;53444;45.822;16.092;2023-02-28T12:39:15;6.16;65.85
66586;SHT30;53444;45.822;16.092;2023-02-28T12:41:47;6.17;66.00
66586;SHT30;53444;45.822;16.092;2023-02-28T12:44:18;6.01;66.02
66586;SHT30;53444;45.822;16.092;2023-02-28T12:46:48;6.13;66.43
66586;SHT30;53444;45.822;16.092;2023-02-28T12:49:25;6.37;66.25
66586;SHT30;53444;45.822;16.092;2023-02-28T12:51:56;6.32;65.53
66586;SHT30;53444;45.822;16.092;2023-02-28T12:54:28;6.34;65.73
66586;SHT30;53444;45.822;16.092;2023-02-28T12:57:01;6.33;65.00
66586;SHT30;53444;45.822;16.092;2023-02-28T12:59:36;6.05;66.41
66586;SHT30;53444;45.822;16.092;2023-02-28T13:02:23;6.26;66.21
66586;SHT30;53444;45.822;16.092;2023-02-28T13:05:15;6.16;65.55
66586;SHT30;53444;45.822;16.092;2023-02-28T13:08:20;6.19;66.10
66586;SHT30;53444;45.822;16.092;2023-02-28T13:10:51;6.25;65.50
66586;SHT30;53444;45.822;16.092;2023-02-28T13:13:21;5.88;65.90
66586;SHT30;53444;45.822;16.092;2023-02-28T13:16:04;5.72;66.37
66586;SHT30;53444;45.822;16.092;2023-02-28T13:18:35;5.71;66.35
66586;SHT30;53444;45.822;16.092;2023-02-28T13:21:03;5.56;66.97
66586;SHT30;53444;45.822;16.092;2023-02-28T13:24:01;5.68;66.63
66586;SHT30;53444;45.822;16.092;2023-02-28T13:29:35;5.75;66.34
66586;SHT30;53444;45.822;16.092;2023-02-28T13:32:33;5.82;65.94
66586;SHT30;53444;45.822;16.092;2023-02-28T13:35:36;5.86;65.99
66586;SHT30;53444;45.822;16.092;2023-02-28T13:38:23;5.86;66.16
66586;SHT30;53444;45.822;16.092;2023-02-28T13:40:50;5.89;66.06
66586;SHT30;53444;45.822;16.092;2023-02-28T13:43:18;5.84;66.16
66586;SHT30;53444;45.822;16.092;2023-02-28T13:46:10;5.84;65.96
66586;SHT30;53444;45.822;16.092;2023-02-28T13:48:38;5.91;66.62
66586;SHT30;53444;45.822;16.092;2023-02-28T13:51:37;6.01;66.46
66586;SHT30;53444;45.822;16.092;2023-02-28T13:54:18;5.95;66.09
66586;SHT30;53444;45.822;16.092;2023-02-28T13:56:53;5.86;66.10
66586;SHT30;53444;45.822;16.092;2023-02-28T13:59:28;5.86;65.44
66586;SHT30;53444;45.822;16.092;2023-02-28T14:02:13;5.85;66.14
66586;SHT30;53444;45.822;16.092;2023-02-28T14:04:55;5.78;66.21
66586;SHT30;53444;45.822;16.092;2023-02-28T14:07:26;5.76;66.23
66586;SHT30;53444;45.822;16.092;2023-02-28T14:10:01;5.84;66.26
66586;SHT30;53444;45.822;16.092;2023-02-28T14:12:59;5.88;66.41
66586;SHT30;53444;45.822;16.092;2023-02-28T14:15:43;5.88;66.55
66586;SHT30;53444;45.822;16.092;2023-02-28T14:18:18;5.84;65.93
66586;SHT30;53444;45.822;16.092;2023-02-28T14:20:47;5.86;66.03
66586;SHT30;53444;45.822;16.092;2023-02-28T14:23:23;5.79;67.20
66586;SHT30;53444;45.822;16.092;2023-02-28T14:25:59;5.65;66.66
66586;SHT30;53444;45.822;16.092;2023-02-28T14:28:46;5.47;67.43
66586;SHT30;53444;45.822;16.092;2023-02-28T14:31:18;5.55;67.04
66586;SHT30;53444;45.822;16.092;2023-02-28T14:34:11;5.47;67.12
66586;SHT30;53444;45.822;16.092;2023-02-28T14:36:41;5.51;67.84
66586;SHT30;53444;45.822;16.092;2023-02-28T14:39:13;5.55;67.53
66586;SHT30;53444;45.822;16.092;2023-02-28T14:41:43;5.69;66.89
66586;SHT30;53444;45.822;16.092;2023-02-28T14:44:15;5.66;66.24
66586;SHT30;53444;45.822;16.092;2023-02-28T14:46:42;5.68;66.49
66586;SHT30;53444;45.822;16.092;2023-02-28T14:49:17;5.50;67.01
66586;SHT30;53444;45.822;16.092;2023-02-28T14:51:44;5.52;65.97
66586;SHT30;53444;45.822;16.092;2023-02-28T14:54:14;5.52;66.99
66586;SHT30;53444;45.822;16.092;2023-02-28T14:56:42;5.56;67.16
66586;SHT30;53444;45.822;16.092;2023-02-28T14:59:24;5.68;67.12
66586;SHT30;53444;45.822;16.092;2023-02-28T15:01:51;5.64;67.17
66586;SHT30;53444;45.822;16.092;2023-02-28T15:04:24;5.59;66.52
66586;SHT30;53444;45.822;16.092;2023-02-28T15:07:07;5.54;67.06
66586;SHT30;53444;45.822;16.092;2023-02-28T15:09:34;5.50;67.07
66586;SHT30;53444;45.822;16.092;2023-02-28T15:12:01;5.48;67.31
66586;SHT30;53444;45.822;16.092;2023-02-28T15:14:28;5.37;67.77
66586;SHT30;53444;45.822;16.092;2023-02-28T15:16:58;5.38;68.00
66586;SHT30;53444;45.822;16.092;2023-02-28T15:19:29;5.44;67.49
66586;SHT30;53444;45.822;16.092;2023-02-28T15:22:00;5.37;67.45
66586;SHT30;53444;45.822;16.092;2023-02-28T15:24:34;5.38;67.96
66586;SHT30;53444;45.822;16.092;2023-02-28T15:27:05;5.30;68.09
66586;SHT30;53444;45.822;16.092;2023-02-28T15:29:47;5.30;68.33
66586;SHT30;53444;45.822;16.092;2023-02-28T15:32:25;5.27;68.37
66586;SHT30;53444;45.822;16.092;2023-02-28T15:34:56;5.20;68.46
66586;SHT30;53444;45.822;16.092;2023-02-28T15:37:45;5.19;69.33
66586;SHT30;53444;45.822;16.092;2023-02-28T15:40:16;5.16;68.75
66586;SHT30;53444;45.822;16.092;2023-02-28T15:42:58;5.07;68.74
66586;SHT30;53444;45.822;16.092;2023-02-28T15:45:36;5.09;68.91
66586;SHT30;53444;45.822;16.092;2023-02-28T15:48:04;5.10;69.12
66586;SHT30;53444;45.822;16.092;2023-02-28T15:50:33;5.09;68.91
66586;SHT30;53444;45.822;16.092;2023-02-28T15:53:01;5.01;69.07
66586;SHT30;53444;45.822;16.092;2023-02-28T15:55:30;4.97;69.29
66586;SHT30;53444;45.822;16.092;2023-02-28T15:58:00;4.93;69.68
66586;SHT30;53444;45.822;16.092;2023-02-28T16:00:29;4.94;69.56
66586;SHT30;53444;45.822;16.092;2023-02-28T16:02:58;4.96;69.99
66586;SHT30;53444;45.822;16.092;2023-02-28T16:05:26;4.96;69.81